Allen Army Airfield
PABI : rendu visible

Aérodrome :











RETROUVEZ-NOUS SUR...

 
LOGIN :

S'inscrire | Disclaimer

   EN    FR    IT 

 









Légende :    VFR   VFR Marginal   IFR   IFR Intensif   IFR Très Intensif
Visi : 
Plafond : 
>= 8 km
>= 3000ft
5 à 8 km
1000 à 3000 ft
1500m à 5 km
500 à 1000 ft
800 à 1500m
200 à 500 ft
< 800m
< 200 ft
Symboles :   Orages  Brouillard  Fortes neiges  Fortes précipitations  Vent > 20 kt






- Altitude de l'aérodrome : 1291 ft
- Code IATA : BIG


PABI - Allen Army

DERNIER METAR :
  • 241943Z 28007KT 10SM BKN008 OVC013 02/01 A2934 RMK AO2 VSCH ALQDS T00220006

METARs EXPIRÉS :
  • 241909Z 28007KT 10SM OVC011 02/01 A2934 RMK AO2 VSCH ALQDS T00220006
  • 241853Z 28007KT 10SM SCT009 OVC020 02/01 A2933 RMK AO2 RAE49 SLP948 VCSH ALQDS P0000 T00220006
  • 241809Z 28008KT 10SM -RA SCT009 OVC020 02/01 A2932 RMK AO2 P0000 T00170006
  • 241753Z 28009KT 10SM -RA OVC019 02/01 A2932 RMK AO2 SLP943 P0001 60011 T00170006 10028 20017 53010
  • 241653Z 26008KT 10SM -RA OVC018 02/01 A2930 RMK AO2 RAB24 SLP938 P0000 T00170006

TAF AMD TAF PABI
Valide du 24 à 19h jusqu'au 25 à 20h UTC


241926Z 2419/2520 28009KT 8000 -RA SCT008 OVC011 620186 QNH2924INS
BECMG 2421/2422 VRB06KT 8000 -RA BKN015 620177 QNH2931INS
BECMG 2509/2510 VRB06KT 8000 BR BKN012 620127 QNH2934INS
BECMG 2518/2519 VRB06KT 9999 NSW BKN025 620306 QNH2928INS TX06/2423Z TN01/2512Z FOR MIL USE ONLY
FIR PAZA / Amérique du Nord



MET'MAP, la Météo Aéronautique d'un coup d'oeil ! - Copyright ORBIFLY Décembre 2007 - Disclaimer

ORBIFLY MET'MAP TEAM :

Programmation & Développement : Alexandra Zaïnal
Sur une idée originale de : Baudouin d'Aumeries
Assistance à la programmation : Marc-Olivier Méhu
Soutien technique & logistique : Manuel Goepfert

Contact : metmap@orbifly.com




SOURCES & CREDITS :

   NOAA       Earth
Advisory